| time (UTC) | temp F | wind direction | speed knots | gust knots | rain 1hr in | rain 24hr in | rain mn in | humidity % | barometer mb |
| 20260510120601 | 62 | 111 | 0.9 | 0.9 | 0.00 | 0.00 | 0.00 | 86 | 1062.6 |
| 20260510120056 | 62 | 110 | 0.9 | 0.9 | 0.00 | 0.00 | 0.00 | 86 | 1062.7 |
| 20260510115553 | 62 | 110 | 0.0 | 0.0 | 0.00 | 0.00 | 0.00 | 85 | 1062.6 |
| 20260510115051 | 62 | 111 | 0.9 | 0.9 | 0.00 | 0.00 | 0.00 | 85 | 1062.6 |
| 20260510114546 | 62 | 110 | 0.0 | 0.9 | 0.00 | 0.00 | 0.00 | 83 | 1062.6 |
| 20260510114042 | 62 | 121 | 0.9 | 0.9 | 0.00 | 0.00 | 0.00 | 81 | 1062.5 |
| 20260510113537 | 62 | 103 | 0.0 | 0.0 | 0.00 | 0.00 | 0.00 | 80 | 1062.6 |
| 20260510113036 | 63 | 142 | 1.7 | 1.7 | 0.00 | 0.00 | 0.00 | 78 | 1062.7 |
| 20260510112532 | 64 | 60 | 0.0 | 0.0 | 0.00 | 0.00 | 0.00 | 78 | 1062.3 |
| 20260510112028 | 65 | 345 | 0.0 | 0.0 | 0.00 | 0.00 | 0.00 | 77 | 1062.4 |
| 20260510111525 | 65 | 310 | 0.0 | 0.0 | 0.00 | 0.00 | 0.00 | 77 | 1062.3 |
| 20260510111021 | 65 | 274 | 0.0 | 0.0 | 0.00 | 0.00 | 0.00 | 77 | 1062.2 |
| 20260510110517 | 65 | 335 | 0.9 | 0.9 | 0.00 | 0.00 | 0.00 | 76 | 1062.2 |
| 20260510110014 | 65 | 351 | 0.9 | 0.9 | 0.00 | 0.00 | 0.00 | 75 | 1062.0 |
| 20260510105509 | 65 | 2 | 0.9 | 0.9 | 0.00 | 0.00 | 0.00 | 74 | 1062.3 |
| 20260510105004 | 65 | 350 | 0.0 | 0.0 | 0.00 | 0.00 | 0.00 | 73 | 1062.2 |
| 20260510104501 | 64 | 354 | 0.0 | 0.0 | 0.00 | 0.00 | 0.00 | 74 | 1062.2 |
| 20260510103957 | 64 | 357 | 1.7 | 2.6 | 0.00 | 0.00 | 0.00 | 74 | 1062.2 |
| 20260510103454 | 64 | 339 | 2.6 | 2.6 | 0.00 | 0.00 | 0.00 | 75 | 1061.8 |
| 20260510102950 | 64 | 336 | 0.9 | 1.7 | 0.00 | 0.00 | 0.00 | 74 | 1062.1 |
| 20260510102446 | 63 | 329 | 2.6 | 2.6 | 0.00 | 0.00 | 0.00 | 76 | 1062.0 |
| 20260510101943 | 63 | 346 | 1.7 | 1.7 | 0.00 | 0.00 | 0.00 | 77 | 1062.0 |
| 20260510101441 | 64 | 323 | 1.7 | 1.7 | 0.00 | 0.00 | 0.00 | 75 | 1061.8 |
| 20260510100939 | 64 | 331 | 2.6 | 2.6 | 0.00 | 0.00 | 0.00 | 74 | 1061.8 |
| 20260510100435 | 64 | 333 | 2.6 | 2.6 | 0.00 | 0.00 | 0.00 | 73 | 1062.0 |
| 20260510095931 | 64 | 349 | 2.6 | 2.6 | 0.00 | 0.00 | 0.00 | 72 | 1061.8 |
| 20260510095427 | 64 | 323 | 2.6 | 4.3 | 0.00 | 0.00 | 0.00 | 72 | 1061.6 |
| 20260510094926 | 63 | 334 | 2.6 | 2.6 | 0.00 | 0.00 | 0.00 | 73 | 1061.5 |
| 20260510094421 | 64 | 338 | 2.6 | 2.6 | 0.00 | 0.00 | 0.00 | 72 | 1061.5 |
| 20260510093917 | 64 | 341 | 1.7 | 1.7 | 0.00 | 0.00 | 0.00 | 72 | 1061.3 |
| 20260510093413 | 64 | 355 | 1.7 | 1.7 | 0.00 | 0.00 | 0.00 | 72 | 1061.1 |
| 20260510092909 | 64 | 359 | 0.9 | 0.9 | 0.00 | 0.00 | 0.00 | 72 | 1061.1 |
| 20260510092407 | 64 | 354 | 0.9 | 0.9 | 0.00 | 0.00 | 0.00 | 71 | 1061.2 |
| 20260510091907 | 64 | 349 | 0.9 | 0.9 | 0.00 | 0.00 | 0.00 | 71 | 1061.1 |
| 20260510091404 | 65 | 354 | 0.0 | 0.9 | 0.00 | 0.00 | 0.00 | 71 | 1060.7 |
| 20260510090901 | 64 | 351 | 0.9 | 0.9 | 0.00 | 0.00 | 0.00 | 71 | 1061.1 |
| 20260510090357 | 64 | 357 | 0.9 | 0.9 | 0.00 | 0.00 | 0.00 | 71 | 1060.9 |
| 20260510085853 | 64 | 334 | 1.7 | 1.7 | 0.00 | 0.00 | 0.00 | 70 | 1061.0 |
| 20260510085348 | 63 | 338 | 2.6 | 2.6 | 0.00 | 0.00 | 0.00 | 71 | 1061.1 |
| 20260510084844 | 63 | 49 | 1.7 | 1.7 | 0.00 | 0.00 | 0.00 | 71 | 1061.1 |
| 20260510084341 | 63 | 12 | 3.5 | 5.2 | 0.00 | 0.00 | 0.00 | 71 | 1061.4 |
| 20260510083838 | 63 | 352 | 4.3 | 4.3 | 0.00 | 0.00 | 0.00 | 72 | 1061.3 |
| 20260510083334 | 63 | 342 | 1.7 | 1.7 | 0.00 | 0.00 | 0.00 | 72 | 1060.8 |
| 20260510082830 | 63 | 347 | 0.9 | 0.9 | 0.00 | 0.00 | 0.00 | 72 | 1060.8 |
| 20260510082327 | 63 | 328 | 0.0 | 0.0 | 0.00 | 0.00 | 0.00 | 72 | 1060.9 |
| 20260510081826 | 63 | 323 | 0.0 | 0.0 | 0.00 | 0.00 | 0.00 | 72 | 1060.6 |
| 20260510081322 | 63 | 321 | 0.0 | 0.0 | 0.00 | 0.00 | 0.00 | 72 | 1060.6 |
| 20260510080819 | 64 | 285 | 0.0 | 0.0 | 0.00 | 0.00 | 0.00 | 70 | 1060.6 |
| 20260510080313 | 63 | 288 | 0.0 | 0.9 | 0.00 | 0.00 | 0.00 | 70 | 1060.5 |
| 20260510075811 | 64 | 331 | 0.0 | 0.9 | 0.00 | 0.00 | 0.00 | 70 | 1060.4 |
| 20260510075308 | 64 | 330 | 0.9 | 0.9 | 0.00 | 0.00 | 0.00 | 70 | 1060.5 |
| 20260510074805 | 64 | 262 | 0.9 | 1.7 | 0.00 | 0.00 | 0.00 | 70 | 1060.5 |
| 20260510074302 | 64 | 341 | 0.0 | 0.0 | 0.00 | 0.00 | 0.00 | 69 | 1060.7 |
| 20260510073758 | 64 | 342 | 0.0 | 0.0 | 0.00 | 0.00 | 0.00 | 69 | 1060.6 |
| 20260510073254 | 64 | 328 | 0.0 | 0.0 | 0.00 | 0.00 | 0.00 | 69 | 1060.7 |
| 20260510072749 | 64 | 273 | 0.9 | 0.9 | 0.00 | 0.00 | 0.00 | 69 | 1060.6 |
| 20260510072247 | 64 | 278 | 0.9 | 0.9 | 0.00 | 0.00 | 0.00 | 70 | 1060.6 |
| 20260510071743 | 64 | 272 | 0.9 | 0.9 | 0.00 | 0.00 | 0.00 | 69 | 1060.5 |
| 20260510071239 | 64 | 301 | 0.9 | 1.7 | 0.00 | 0.00 | 0.00 | 70 | 1060.5 |
| 20260510070738 | 63 | 317 | 0.0 | 0.0 | 0.00 | 0.00 | 0.00 | 72 | 1060.5 |
| 20260510070235 | 64 | 233 | 0.0 | 0.0 | 0.00 | 0.00 | 0.00 | 75 | 1060.5 |
| 20260510065729 | 64 | 233 | 0.0 | 0.0 | 0.00 | 0.00 | 0.00 | 74 | 1060.5 |
| 20260510065226 | 64 | 233 | 0.0 | 0.0 | 0.00 | 0.00 | 0.00 | 72 | 1060.7 |
| 20260510064723 | 64 | 233 | 0.0 | 0.0 | 0.00 | 0.00 | 0.00 | 69 | 1060.7 |
| 20260510064221 | 65 | 253 | 0.0 | 0.0 | 0.00 | 0.00 | 0.00 | 65 | 1060.7 |
| 20260510063717 | 65 | 291 | 0.0 | 0.0 | 0.00 | 0.00 | 0.00 | 63 | 1060.7 |
| 20260510063213 | 65 | 276 | 0.0 | 0.9 | 0.00 | 0.00 | 0.00 | 63 | 1060.9 |
| 20260510062710 | 65 | 303 | 0.0 | 0.9 | 0.00 | 0.00 | 0.00 | 62 | 1061.1 |
| 20260510062206 | 65 | 251 | 0.0 | 0.0 | 0.00 | 0.00 | 0.00 | 62 | 1060.9 |
| 20260510061701 | 65 | 309 | 0.0 | 0.9 | 0.00 | 0.00 | 0.00 | 66 | 1060.9 |
| 20260510061158 | 65 | 313 | 0.0 | 0.9 | 0.00 | 0.00 | 0.00 | 66 | 1060.7 |
| 20260510060655 | 65 | 322 | 0.9 | 0.9 | 0.00 | 0.00 | 0.00 | 65 | 1060.9 |
| 20260510060151 | 66 | 309 | 0.9 | 0.9 | 0.00 | 0.00 | 0.00 | 64 | 1060.8 |
| 20260510055648 | 66 | 315 | 0.9 | 0.9 | 0.00 | 0.00 | 0.00 | 64 | 1060.9 |
| 20260510055146 | 66 | 284 | 0.9 | 0.9 | 0.00 | 0.00 | 0.00 | 63 | 1060.9 |
| 20260510054641 | 66 | 292 | 0.9 | 0.9 | 0.00 | 0.00 | 0.00 | 65 | 1060.8 |
| 20260510054137 | 66 | 332 | 0.0 | 0.0 | 0.00 | 0.00 | 0.00 | 62 | 1060.9 |
| 20260510053636 | 67 | 325 | 0.0 | 0.0 | 0.00 | 0.00 | 0.00 | 61 | 1060.7 |
| 20260510053133 | 67 | 306 | 0.0 | 0.0 | 0.00 | 0.00 | 0.00 | 59 | 1060.8 |
| 20260510052629 | 68 | 284 | 0.0 | 0.0 | 0.00 | 0.00 | 0.00 | 57 | 1060.7 |
| 20260510052126 | 67 | 323 | 0.0 | 0.0 | 0.00 | 0.00 | 0.00 | 56 | 1060.8 |
| 20260510051621 | 67 | 264 | 0.0 | 0.0 | 0.00 | 0.00 | 0.00 | 55 | 1060.6 |
| 20260510051118 | 69 | 236 | 0.0 | 0.9 | 0.00 | 0.00 | 0.00 | 53 | 1060.6 |
| 20260510050615 | 69 | 245 | 0.0 | 0.0 | 0.00 | 0.00 | 0.00 | 50 | 1060.8 |
| 20260510050112 | 68 | 294 | 0.0 | 0.0 | 0.00 | 0.00 | 0.00 | 51 | 1060.7 |
| 20260510045604 | 68 | 124 | 0.0 | 0.0 | 0.00 | 0.00 | 0.00 | 52 | 1060.8 |
| 20260510045059 | 69 | 124 | 0.0 | 0.0 | 0.00 | 0.00 | 0.00 | 50 | 1060.5 |
| 20260510044556 | 69 | 123 | 0.0 | 0.0 | 0.00 | 0.00 | 0.00 | 49 | 1060.5 |
| 20260510044054 | 69 | 339 | 0.0 | 0.0 | 0.00 | 0.00 | 0.00 | 48 | 1060.5 |
| 20260510043548 | 70 | 280 | 0.0 | 0.9 | 0.00 | 0.00 | 0.00 | 49 | 1060.4 |
| 20260510043045 | 70 | 264 | 0.0 | 0.0 | 0.00 | 0.00 | 0.00 | 48 | 1060.4 |
| 20260510042539 | 70 | 261 | 0.0 | 0.9 | 0.00 | 0.00 | 0.00 | 49 | 1060.6 |
| 20260510042034 | 70 | 280 | 0.0 | 0.0 | 0.00 | 0.00 | 0.00 | 47 | 1060.5 |
| 20260510041531 | 70 | 288 | 0.0 | 0.9 | 0.00 | 0.00 | 0.00 | 47 | 1060.6 |
| 20260510041028 | 69 | 248 | 0.0 | 0.9 | 0.00 | 0.00 | 0.00 | 50 | 1060.3 |
| 20260510040520 | 70 | 198 | 0.0 | 0.0 | 0.00 | 0.00 | 0.00 | 49 | 1060.4 |
| 20260510040015 | 71 | 136 | 0.0 | 0.9 | 0.00 | 0.00 | 0.00 | 48 | 1060.2 |
| 20260510035512 | 72 | 184 | 1.7 | 1.7 | 0.00 | 0.00 | 0.00 | 45 | 1060.3 |
| 20260510035011 | 72 | 178 | 1.7 | 4.3 | 0.00 | 0.00 | 0.00 | 46 | 1060.1 |
| 20260510034510 | 72 | 167 | 1.7 | 1.7 | 0.00 | 0.00 | 0.00 | 45 | 1060.1 |
| 20260510034006 | 71 | 152 | 0.9 | 0.9 | 0.00 | 0.00 | 0.00 | 46 | 1059.9 |
| 20260510033502 | 72 | 156 | 0.0 | 0.0 | 0.00 | 0.00 | 0.00 | 46 | 1060.1 |
| 20260510032959 | 72 | 164 | 1.7 | 2.6 | 0.00 | 0.00 | 0.00 | 45 | 1059.9 |
| 20260510032456 | 72 | 159 | 1.7 | 1.7 | 0.00 | 0.00 | 0.00 | 46 | 1059.8 |
| 20260510031951 | 73 | 153 | 0.9 | 0.9 | 0.00 | 0.00 | 0.00 | 46 | 1059.9 |
| 20260510031447 | 73 | 156 | 0.9 | 0.9 | 0.00 | 0.00 | 0.00 | 45 | 1059.8 |
| 20260510030943 | 73 | 151 | 0.9 | 0.9 | 0.00 | 0.00 | 0.00 | 46 | 1059.8 |
| 20260510030438 | 73 | 137 | 0.9 | 0.9 | 0.00 | 0.00 | 0.00 | 45 | 1059.8 |
| 20260510025936 | 73 | 173 | 0.9 | 1.7 | 0.00 | 0.00 | 0.00 | 45 | 1059.7 |
| 20260510025433 | 72 | 122 | 0.0 | 0.0 | 0.00 | 0.00 | 0.00 | 49 | 1059.6 |
| 20260510024931 | 73 | 122 | 0.0 | 0.0 | 0.00 | 0.00 | 0.00 | 48 | 1059.4 |
| 20260510024427 | 73 | 107 | 0.0 | 0.0 | 0.00 | 0.00 | 0.00 | 48 | 1059.3 |
| 20260510023923 | 73 | 107 | 0.0 | 0.0 | 0.00 | 0.00 | 0.00 | 48 | 1059.2 |
| 20260510023419 | 73 | 132 | 0.9 | 0.9 | 0.00 | 0.00 | 0.00 | 46 | 1059.3 |
| 20260510022917 | 73 | 124 | 1.7 | 1.7 | 0.00 | 0.00 | 0.00 | 45 | 1059.0 |
| 20260510022415 | 73 | 146 | 0.9 | 1.7 | 0.00 | 0.00 | 0.00 | 45 | 1058.7 |
| 20260510021915 | 73 | 102 | 0.0 | 0.0 | 0.00 | 0.00 | 0.00 | 48 | 1058.9 |
| 20260510021413 | 73 | 136 | 0.9 | 0.9 | 0.00 | 0.00 | 0.00 | 47 | 1058.7 |
| 20260510020909 | 74 | 140 | 0.9 | 0.9 | 0.00 | 0.00 | 0.00 | 46 | 1058.4 |
| 20260510020404 | 73 | 128 | 0.9 | 0.9 | 0.00 | 0.00 | 0.00 | 47 | 1058.3 |
| 20260510015900 | 73 | 109 | 0.0 | 0.0 | 0.00 | 0.00 | 0.00 | 47 | 1058.4 |
| 20260510015356 | 74 | 122 | 0.0 | 0.0 | 0.00 | 0.00 | 0.00 | 46 | 1058.3 |
| 20260510014851 | 73 | 124 | 0.9 | 0.9 | 0.00 | 0.00 | 0.00 | 45 | 1058.3 |
| 20260510014349 | 73 | 103 | 0.0 | 0.0 | 0.00 | 0.00 | 0.00 | 46 | 1058.2 |
| 20260510013845 | 74 | 90 | 0.0 | 0.0 | 0.00 | 0.00 | 0.00 | 47 | 1058.0 |
| 20260510013341 | 74 | 121 | 0.0 | 0.9 | 0.00 | 0.00 | 0.00 | 46 | 1058.0 |
| 20260510012836 | 74 | 92 | 0.0 | 0.9 | 0.00 | 0.00 | 0.00 | 46 | 1057.9 |
| 20260510012335 | 74 | 85 | 0.0 | 0.0 | 0.00 | 0.00 | 0.00 | 46 | 1057.8 |
| 20260510011831 | 74 | 85 | 0.0 | 0.0 | 0.00 | 0.00 | 0.00 | 48 | 1057.8 |
| 20260510011326 | 74 | 85 | 0.0 | 0.0 | 0.00 | 0.00 | 0.00 | 47 | 1057.6 |
| 20260510010823 | 74 | 84 | 0.0 | 0.0 | 0.00 | 0.00 | 0.00 | 46 | 1057.7 |
| 20260510010320 | 75 | 99 | 0.0 | 0.0 | 0.00 | 0.00 | 0.00 | 47 | 1057.7 |
| 20260510005817 | 76 | 166 | 1.7 | 1.7 | 0.00 | 0.00 | 0.00 | 43 | 1057.6 |
| 20260510005313 | 76 | 174 | 2.6 | 2.6 | 0.00 | 0.00 | 0.00 | 43 | 1057.7 |
| 20260510004811 | 76 | 161 | 0.9 | 1.7 | 0.00 | 0.00 | 0.00 | 43 | 1057.6 |
| 20260510004308 | 76 | 151 | 0.9 | 0.9 | 0.00 | 0.00 | 0.00 | 44 | 1057.6 |
| 20260510003806 | 76 | 147 | 0.9 | 1.7 | 0.00 | 0.00 | 0.00 | 43 | 1057.6 |
| 20260510003303 | 76 | 176 | 2.6 | 2.6 | 0.00 | 0.00 | 0.00 | 42 | 1057.6 |
| 20260510002801 | 77 | 152 | 1.7 | 1.7 | 0.00 | 0.00 | 0.00 | 42 | 1057.5 |
| 20260510002259 | 77 | 177 | 2.6 | 2.6 | 0.00 | 0.00 | 0.00 | 41 | 1057.4 |
| 20260510001755 | 78 | 171 | 1.7 | 1.7 | 0.00 | 0.00 | 0.00 | 40 | 1057.5 |
| 20260510001254 | 79 | 194 | 1.7 | 1.7 | 0.00 | 0.00 | 0.00 | 37 | 1057.4 |
| 20260510000749 | 79 | 309 | 0.0 | 0.0 | 0.00 | 0.00 | 0.00 | 36 | 1057.4 |
| 20260510000248 | 80 | 309 | 0.0 | 0.0 | 0.00 | 0.00 | 0.00 | 38 | 1057.4 |
| 20260509235744 | 81 | 323 | 0.0 | 0.0 | 0.00 | 0.00 | 0.00 | 38 | 1057.4 |
| 20260509235240 | 82 | 328 | 0.0 | 0.0 | 0.00 | 0.00 | 0.00 | 37 | 1057.5 |
| 20260509234736 | 82 | 328 | 0.0 | 0.0 | 0.00 | 0.00 | 0.00 | 36 | 1057.4 |
| 20260509234233 | 82 | 326 | 0.0 | 0.0 | 0.00 | 0.00 | 0.00 | 35 | 1057.3 |
| 20260509233731 | 81 | 251 | 0.0 | 0.0 | 0.00 | 0.00 | 0.00 | 35 | 1057.2 |
| 20260509233228 | 81 | 303 | 0.0 | 0.9 | 0.00 | 0.00 | 0.00 | 34 | 1057.5 |
| 20260509232724 | 81 | 301 | 1.7 | 1.7 | 0.00 | 0.00 | 0.00 | 35 | 1057.5 |
| 20260509232222 | 81 | 337 | 0.9 | 0.9 | 0.00 | 0.00 | 0.00 | 36 | 1057.5 |
| 20260509231718 | 81 | 336 | 0.0 | 0.0 | 0.00 | 0.00 | 0.00 | 37 | 1057.6 |
| 20260509231215 | 82 | 192 | 0.9 | 0.9 | 0.00 | 0.00 | 0.00 | 37 | 1057.6 |
| 20260509230712 | 81 | 329 | 0.0 | 0.9 | 0.00 | 0.00 | 0.00 | 35 | 1057.5 |
| 20260509230203 | 81 | 291 | 2.6 | 4.3 | 0.00 | 0.00 | 0.00 | 36 | 1057.4 |
| 20260509225659 | 81 | 251 | 0.9 | 0.9 | 0.00 | 0.00 | 0.00 | 36 | 1057.6 |
| 20260509225154 | 82 | 315 | 0.0 | 0.9 | 0.00 | 0.00 | 0.00 | 36 | 1057.6 |
| 20260509224651 | 82 | 344 | 0.9 | 0.9 | 0.00 | 0.00 | 0.00 | 35 | 1057.4 |
| 20260509224148 | 82 | 286 | 2.6 | 2.6 | 0.00 | 0.00 | 0.00 | 37 | 1057.5 |
| 20260509223644 | 81 | 229 | 0.9 | 1.7 | 0.00 | 0.00 | 0.00 | 35 | 1057.2 |
| 20260509223141 | 81 | 271 | 0.9 | 0.9 | 0.00 | 0.00 | 0.00 | 35 | 1057.4 |
| 20260509222638 | 80 | 244 | 1.7 | 2.6 | 0.00 | 0.00 | 0.00 | 36 | 1057.3 |
| 20260509222133 | 81 | 237 | 1.7 | 1.7 | 0.00 | 0.00 | 0.00 | 35 | 1057.4 |
| 20260509221630 | 81 | 183 | 1.7 | 1.7 | 0.00 | 0.00 | 0.00 | 35 | 1057.4 |
| 20260509221126 | 82 | 295 | 1.7 | 2.6 | 0.00 | 0.00 | 0.00 | 34 | 1057.3 |
| 20260509220622 | 82 | 335 | 0.9 | 0.9 | 0.00 | 0.00 | 0.00 | 33 | 1057.4 |
| 20260509220119 | 82 | 253 | 1.7 | 1.7 | 0.00 | 0.00 | 0.00 | 32 | 1057.5 |
| 20260509215614 | 82 | 265 | 4.3 | 5.2 | 0.00 | 0.00 | 0.00 | 31 | 1057.5 |
| 20260509215112 | 82 | 84 | 0.0 | 0.0 | 0.00 | 0.00 | 0.00 | 36 | 1057.4 |
| 20260509214609 | 82 | 313 | 0.9 | 0.9 | 0.00 | 0.00 | 0.00 | 34 | 1057.6 |
| 20260509214105 | 82 | 310 | 1.7 | 2.6 | 0.00 | 0.00 | 0.00 | 35 | 1057.5 |
| 20260509213601 | 83 | 210 | 0.9 | 1.7 | 0.00 | 0.00 | 0.00 | 36 | 1057.4 |
| 20260509213058 | 83 | 217 | 0.9 | 1.7 | 0.00 | 0.00 | 0.00 | 37 | 1057.7 |
| 20260509212555 | 82 | 238 | 3.5 | 4.3 | 0.00 | 0.00 | 0.00 | 34 | 1057.7 |
| 20260509212052 | 83 | 91 | 0.0 | 0.0 | 0.00 | 0.00 | 0.00 | 35 | 1057.6 |
| 20260509211548 | 84 | 1 | 0.9 | 0.9 | 0.00 | 0.00 | 0.00 | 34 | 1057.5 |
| 20260509211045 | 83 | 279 | 0.0 | 0.9 | 0.00 | 0.00 | 0.00 | 35 | 1057.8 |
| 20260509210542 | 83 | 294 | 1.7 | 1.7 | 0.00 | 0.00 | 0.00 | 36 | 1057.5 |
| 20260509210038 | 83 | 291 | 0.9 | 0.9 | 0.00 | 0.00 | 0.00 | 37 | 1057.6 |
| 20260509205538 | 82 | 31 | 0.0 | 0.0 | 0.00 | 0.00 | 0.00 | 38 | 1057.6 |
| 20260509205033 | 82 | 168 | 4.3 | 5.2 | 0.00 | 0.00 | 0.00 | 35 | 1057.6 |
| 20260509204530 | 83 | 155 | 0.9 | 1.7 | 0.00 | 0.00 | 0.00 | 36 | 1057.7 |
| 20260509204026 | 82 | 257 | 0.0 | 0.9 | 0.00 | 0.00 | 0.00 | 36 | 1057.5 |
| 20260509203522 | 83 | 309 | 2.6 | 2.6 | 0.00 | 0.00 | 0.00 | 37 | 1057.7 |
| 20260509203021 | 82 | 280 | 1.7 | 1.7 | 0.00 | 0.00 | 0.00 | 33 | 1057.9 |
| 20260509202515 | 82 | 234 | 0.9 | 1.7 | 0.00 | 0.00 | 0.00 | 38 | 1057.8 |
| 20260509202011 | 81 | 178 | 2.6 | 2.6 | 0.00 | 0.00 | 0.00 | 36 | 1057.8 |
| 20260509201506 | 80 | 307 | 1.7 | 1.7 | 0.00 | 0.00 | 0.00 | 37 | 1058.0 |
| 20260509201004 | 81 | 300 | 2.6 | 4.3 | 0.00 | 0.00 | 0.00 | 37 | 1058.0 |
| 20260509200458 | 81 | 286 | 0.9 | 1.7 | 0.00 | 0.00 | 0.00 | 37 | 1058.1 |
| 20260509195955 | 82 | 351 | 0.9 | 1.7 | 0.00 | 0.00 | 0.00 | 39 | 1058.3 |
| 20260509195450 | 80 | 308 | 3.5 | 5.2 | 0.00 | 0.00 | 0.00 | 38 | 1058.4 |
| 20260509194950 | 81 | 270 | 3.5 | 4.3 | 0.00 | 0.00 | 0.00 | 38 | 1058.3 |
| 20260509194446 | 82 | 316 | 1.7 | 1.7 | 0.00 | 0.00 | 0.00 | 38 | 1058.4 |
| 20260509193943 | 83 | 318 | 0.9 | 0.9 | 0.00 | 0.00 | 0.00 | 39 | 1058.3 |
| 20260509193443 | 82 | 213 | 2.6 | 4.3 | 0.00 | 0.00 | 0.00 | 41 | 1058.3 |
| 20260509192939 | 82 | 326 | 3.5 | 5.2 | 0.00 | 0.00 | 0.00 | 39 | 1058.5 |
| 20260509192436 | 81 | 263 | 2.6 | 2.6 | 0.00 | 0.00 | 0.00 | 37 | 1058.5 |
| 20260509191931 | 81 | 23 | 0.0 | 0.9 | 0.00 | 0.00 | 0.00 | 39 | 1058.6 |
| 20260509191426 | 80 | 253 | 4.3 | 5.2 | 0.00 | 0.00 | 0.00 | 38 | 1058.5 |
| 20260509190923 | 80 | 336 | 2.6 | 2.6 | 0.00 | 0.00 | 0.00 | 36 | 1058.5 |
| 20260509190420 | 78 | 162 | 3.5 | 5.2 | 0.00 | 0.00 | 0.00 | 36 | 1058.7 |
| 20260509185918 | 79 | 348 | 1.7 | 1.7 | 0.00 | 0.00 | 0.00 | 35 | 1058.6 |
| 20260509185415 | 80 | 178 | 1.7 | 2.6 | 0.00 | 0.00 | 0.00 | 36 | 1058.6 |
| 20260509184911 | 78 | 20 | 0.9 | 0.9 | 0.00 | 0.00 | 0.00 | 43 | 1058.6 |
| 20260509184408 | 80 | 12 | 2.6 | 4.3 | 0.00 | 0.00 | 0.00 | 41 | 1058.7 |
| 20260509183905 | 80 | 355 | 1.7 | 2.6 | 0.00 | 0.00 | 0.00 | 43 | 1058.7 |
| 20260509183359 | 79 | 108 | 2.6 | 2.6 | 0.00 | 0.00 | 0.00 | 39 | 1058.7 |
| 20260509182856 | 81 | 249 | 5.2 | 7.0 | 0.00 | 0.00 | 0.00 | 40 | 1058.8 |
| 20260509182353 | 80 | 42 | 0.9 | 0.9 | 0.00 | 0.00 | 0.00 | 43 | 1058.8 |
| 20260509181851 | 79 | 296 | 1.7 | 1.7 | 0.00 | 0.00 | 0.00 | 39 | 1058.6 |
| 20260509181347 | 80 | 267 | 1.7 | 2.6 | 0.00 | 0.00 | 0.00 | 37 | 1058.7 |
| 20260509180845 | 79 | 44 | 0.9 | 1.7 | 0.00 | 0.00 | 0.00 | 40 | 1058.7 |
| 20260509180340 | 80 | 19 | 1.7 | 2.6 | 0.00 | 0.00 | 0.00 | 36 | 1058.5 |
| 20260509175838 | 80 | 353 | 0.0 | 0.9 | 0.00 | 0.00 | 0.00 | 39 | 1058.6 |
| 20260509175334 | 78 | 69 | 0.0 | 0.0 | 0.00 | 0.00 | 0.00 | 39 | 1058.6 |
| 20260509174830 | 80 | 262 | 0.9 | 0.9 | 0.00 | 0.00 | 0.00 | 45 | 1058.9 |
| 20260509174326 | 77 | 280 | 1.7 | 1.7 | 0.00 | 0.00 | 0.00 | 48 | 1058.8 |
| 20260509173822 | 78 | 313 | 1.7 | 2.6 | 0.00 | 0.00 | 0.00 | 47 | 1058.7 |
| 20260509173317 | 76 | 88 | 0.0 | 0.9 | 0.00 | 0.00 | 0.00 | 51 | 1058.9 |
| 20260509172814 | 77 | 99 | 0.9 | 0.9 | 0.00 | 0.00 | 0.00 | 50 | 1059.2 |
| 20260509172311 | 78 | 250 | 1.7 | 1.7 | 0.00 | 0.00 | 0.00 | 51 | 1059.2 |
| 20260509171806 | 76 | 168 | 0.9 | 1.7 | 0.00 | 0.00 | 0.00 | 51 | 1059.2 |
| 20260509171302 | 76 | 351 | 1.7 | 1.7 | 0.00 | 0.00 | 0.00 | 52 | 1059.0 |
| 20260509170759 | 76 | 145 | 0.9 | 1.7 | 0.00 | 0.00 | 0.00 | 54 | 1059.3 |
| 20260509170255 | 76 | 147 | 1.7 | 1.7 | 0.00 | 0.00 | 0.00 | 50 | 1059.0 |
| 20260509165754 | 76 | 280 | 1.7 | 1.7 | 0.00 | 0.00 | 0.00 | 51 | 1059.3 |
| 20260509165249 | 75 | 301 | 1.7 | 2.6 | 0.00 | 0.00 | 0.00 | 49 | 1059.2 |
| 20260509164746 | 75 | 100 | 0.0 | 0.9 | 0.00 | 0.00 | 0.00 | 53 | 1059.3 |
| 20260509164242 | 75 | 260 | 2.6 | 2.6 | 0.00 | 0.00 | 0.00 | 49 | 1059.2 |
| 20260509163739 | 74 | 143 | 0.9 | 1.7 | 0.00 | 0.00 | 0.00 | 58 | 1059.4 |
| 20260509163235 | 75 | 143 | 0.9 | 1.7 | 0.00 | 0.00 | 0.00 | 59 | 1059.3 |
| 20260509162733 | 73 | 140 | 0.9 | 1.7 | 0.00 | 0.00 | 0.00 | 60 | 1059.3 |
| 20260509162228 | 73 | 163 | 2.6 | 2.6 | 0.00 | 0.00 | 0.00 | 60 | 1059.0 |
| 20260509161724 | 74 | 7 | 0.0 | 0.9 | 0.00 | 0.00 | 0.00 | 60 | 1059.2 |
| 20260509161220 | 74 | 172 | 0.9 | 1.7 | 0.00 | 0.00 | 0.00 | 62 | 1059.4 |
| 20260509160715 | 73 | 346 | 0.9 | 1.7 | 0.00 | 0.00 | 0.00 | 65 | 1059.2 |
| 20260509160212 | 72 | 255 | 0.0 | 0.9 | 0.00 | 0.00 | 0.00 | 66 | 1059.5 |
| 20260509155707 | 71 | 164 | 2.6 | 2.6 | 0.00 | 0.00 | 0.00 | 66 | 1059.2 |
| 20260509155204 | 71 | 161 | 0.0 | 0.0 | 0.00 | 0.00 | 0.00 | 68 | 1059.2 |
| 20260509154700 | 70 | 256 | 0.9 | 0.9 | 0.00 | 0.00 | 0.00 | 69 | 1059.3 |
| 20260509154157 | 72 | 45 | 0.0 | 0.9 | 0.00 | 0.00 | 0.00 | 67 | 1059.3 |
| 20260509153654 | 71 | 279 | 0.0 | 0.0 | 0.00 | 0.00 | 0.00 | 67 | 1059.4 |
| 20260509153150 | 71 | 307 | 2.6 | 2.6 | 0.00 | 0.00 | 0.00 | 65 | 1059.0 |
| 20260509152646 | 70 | 285 | 0.0 | 0.9 | 0.00 | 0.00 | 0.00 | 68 | 1059.0 |
| 20260509152144 | 70 | 236 | 0.0 | 0.9 | 0.00 | 0.00 | 0.00 | 69 | 1059.0 |
| 20260509151640 | 69 | 43 | 0.0 | 0.0 | 0.00 | 0.00 | 0.00 | 70 | 1059.0 |
| 20260509151137 | 69 | 263 | 0.9 | 1.7 | 0.00 | 0.00 | 0.00 | 72 | 1058.9 |
| 20260509150635 | 69 | 313 | 0.9 | 0.9 | 0.00 | 0.00 | 0.00 | 72 | 1058.9 |
| 20260509150133 | 68 | 104 | 0.0 | 0.0 | 0.00 | 0.00 | 0.00 | 72 | 1058.9 |
| 20260509145629 | 67 | 11 | 0.0 | 0.0 | 0.00 | 0.00 | 0.00 | 73 | 1058.9 |
| 20260509145124 | 67 | 321 | 0.9 | 0.9 | 0.00 | 0.00 | 0.00 | 77 | 1058.9 |
| 20260509144621 | 67 | 289 | 2.6 | 2.6 | 0.00 | 0.00 | 0.00 | 74 | 1058.9 |
| 20260509144118 | 66 | 190 | 0.0 | 0.9 | 0.00 | 0.00 | 0.00 | 77 | 1059.3 |
| 20260509143615 | 65 | 259 | 0.9 | 1.7 | 0.00 | 0.00 | 0.00 | 78 | 1058.9 |
| 20260509143113 | 66 | 317 | 2.6 | 2.6 | 0.00 | 0.00 | 0.00 | 79 | 1058.8 |
| 20260509142608 | 65 | 275 | 2.6 | 2.6 | 0.00 | 0.00 | 0.00 | 79 | 1059.2 |
| 20260509142105 | 64 | 278 | 1.7 | 1.7 | 0.00 | 0.00 | 0.00 | 81 | 1058.8 |
| 20260509141601 | 64 | 252 | 2.6 | 2.6 | 0.00 | 0.00 | 0.00 | 82 | 1058.9 |
| 20260509141057 | 64 | 279 | 0.9 | 0.9 | 0.00 | 0.00 | 0.00 | 81 | 1058.9 |
| 20260509140555 | 63 | 318 | 1.7 | 1.7 | 0.00 | 0.00 | 0.00 | 82 | 1058.7 |
| 20260509140052 | 62 | 301 | 1.7 | 1.7 | 0.00 | 0.00 | 0.00 | 84 | 1058.8 |
| 20260509135549 | 63 | 329 | 0.9 | 0.9 | 0.00 | 0.00 | 0.00 | 84 | 1058.8 |
| 20260509135047 | 62 | 311 | 0.9 | 0.9 | 0.00 | 0.00 | 0.00 | 84 | 1058.7 |
| 20260509134544 | 62 | 356 | 0.9 | 0.9 | 0.00 | 0.00 | 0.00 | 85 | 1058.6 |
| 20260509134041 | 62 | 262 | 0.9 | 1.7 | 0.00 | 0.00 | 0.00 | 85 | 1058.7 |
| 20260509133538 | 62 | 309 | 0.0 | 0.9 | 0.00 | 0.00 | 0.00 | 87 | 1058.9 |
| 20260509133035 | 61 | 246 | 0.0 | 0.0 | 0.00 | 0.00 | 0.00 | 87 | 1058.6 |
| 20260509132533 | 61 | 245 | 1.7 | 2.6 | 0.00 | 0.00 | 0.00 | 87 | 1058.6 |
| 20260509132031 | 60 | 316 | 0.0 | 0.9 | 0.00 | 0.00 | 0.00 | 90 | 1058.5 |
| 20260509131522 | 59 | 344 | 0.0 | 0.9 | 0.00 | 0.00 | 0.00 | 91 | 1058.5 |
| 20260509131019 | 58 | 253 | 0.9 | 1.7 | 0.00 | 0.00 | 0.00 | 91 | 1058.5 |
| 20260509130514 | 58 | 300 | 0.9 | 1.7 | 0.00 | 0.00 | 0.00 | 92 | 1058.4 |
| 20260509130012 | 58 | 316 | 0.0 | 0.0 | 0.00 | 0.00 | 0.00 | 93 | 1058.6 |
| 20260509125508 | 58 | 264 | 0.9 | 0.9 | 0.00 | 0.00 | 0.00 | 94 | 1058.5 |
| 20260509125004 | 57 | 255 | 0.0 | 0.0 | 0.00 | 0.00 | 0.00 | 95 | 1058.4 |
| 20260509124501 | 56 | 267 | 0.0 | 0.0 | 0.00 | 0.00 | 0.00 | 96 | 1058.2 |
| 20260509123958 | 56 | 301 | 0.9 | 0.9 | 0.00 | 0.00 | 0.00 | 97 | 1058.1 |
| 20260509123456 | 55 | 298 | 0.0 | 0.0 | 0.00 | 0.00 | 0.00 | 97 | 1058.2 |
| 20260509122951 | 55 | 288 | 0.0 | 0.0 | 0.00 | 0.00 | 0.00 | 98 | 1058.2 |
| 20260509122449 | 54 | 334 | 0.0 | 0.0 | 0.00 | 0.00 | 0.00 | 98 | 1058.1 |
| 20260509121945 | 54 | 319 | 0.0 | 0.0 | 0.00 | 0.00 | 0.00 | 98 | 1058.1 |
| 20260509121442 | 54 | 316 | 0.0 | 0.0 | 0.00 | 0.00 | 0.00 | 98 | 1058.1 |
| 20260509120940 | 53 | 313 | 0.0 | 0.0 | 0.00 | 0.00 | 0.00 | 98 | 1058.2 |